Time;durP1;ratioP1;P1;durP2;ratioP2;P2;SDS_P1;SDS_P2;PMS_P1;PMS_P2;Temp;Humidity;BMP_temperature;BMP_pressure;BME280_temperature;BME280_humidity;BME280_pressure;Samples;Min_cycle;Max_cycle;Signal;HPM_P1;HPM_P2
2022/09/01 00:00:33;;;;;;;1.55;0.40;;;15.20;61.90;;;;;;4122315;28;20041;-87
2022/09/01 00:02:34;;;;;;;0.32;0.20;;;15.20;62.30;;;;;;4121348;28;20378;-87
2022/09/01 00:04:40;;;;;;;0.70;0.40;;;15.20;63.00;;;;;;4124000;28;20376;-88
2022/09/01 00:06:42;;;;;;;0.80;0.38;;;15.20;62.30;;;;;;4119195;28;20489;-87
2022/09/01 00:08:43;;;;;;;0.63;0.35;;;15.20;62.60;;;;;;4119189;28;20023;-88
2022/09/01 00:10:45;;;;;;;0.80;0.30;;;15.20;62.70;;;;;;4120485;28;20057;-87
2022/09/01 00:12:45;;;;;;;0.65;0.30;;;15.20;62.50;;;;;;4121880;28;20029;-87
2022/09/01 00:14:46;;;;;;;2.10;0.30;;;15.20;62.80;;;;;;4121691;28;20038;-87
2022/09/01 00:16:47;;;;;;;0.70;0.38;;;15.20;62.80;;;;;;4119322;28;20030;-87
2022/09/01 00:18:50;;;;;;;2.75;0.55;;;15.20;63.00;;;;;;4121954;28;20029;-87
2022/09/01 00:20:51;;;;;;;0.93;0.40;;;15.20;62.70;;;;;;4120779;28;20029;-85
2022/09/01 00:22:52;;;;;;;1.25;0.40;;;15.20;63.40;;;;;;4116449;28;20125;-87
2022/09/01 00:24:52;;;;;;;1.13;0.40;;;15.20;62.50;;;;;;4120115;28;20058;-87
2022/09/01 00:26:54;;;;;;;1.95;0.55;;;15.20;63.00;;;;;;4123080;28;20026;-87
2022/09/01 00:28:55;;;;;;;0.40;0.30;;;15.20;62.90;;;;;;4123187;28;20545;-88
2022/09/01 00:30:57;;;;;;;0.75;0.28;;;15.20;62.90;;;;;;4130519;28;20038;-87
2022/09/01 00:32:57;;;;;;;3.38;0.43;;;15.20;63.10;;;;;;4119354;28;20054;-87
2022/09/01 00:34:58;;;;;;;0.82;0.35;;;15.20;63.00;;;;;;4116564;28;22109;-87
2022/09/01 00:36:59;;;;;;;1.50;0.30;;;15.20;63.00;;;;;;4119226;28;20026;-87
2022/09/01 00:39:00;;;;;;;2.38;0.50;;;15.20;63.20;;;;;;4120773;28;20065;-87
2022/09/01 00:41:01;;;;;;;1.13;0.52;;;15.20;63.20;;;;;;4121368;28;20574;-87
2022/09/01 00:43:19;;;;;;;3.75;0.28;;;15.20;63.20;;;;;;4129312;28;20692;-87
2022/09/01 00:45:20;;;;;;;0.30;0.20;;;15.20;63.00;;;;;;4131110;28;20031;-87
2022/09/01 00:47:21;;;;;;;0.43;0.30;;;15.20;62.90;;;;;;4139599;28;20037;-87
2022/09/01 00:49:45;;;;;;;1.98;0.45;;;15.20;63.10;;;;;;4123277;28;20101;-87
2022/09/01 00:51:50;;;;;;;0.70;0.30;;;15.20;63.20;;;;;;4133338;28;20069;-87
2022/09/01 00:53:51;;;;;;;0.95;0.20;;;15.20;63.00;;;;;;4124604;28;20030;-86
2022/09/01 00:55:52;;;;;;;0.38;0.20;;;15.20;62.90;;;;;;4127524;28;20081;-87
2022/09/01 00:57:53;;;;;;;1.75;0.40;;;15.20;62.80;;;;;;4108924;28;20384;-86
2022/09/01 00:59:59;;;;;;;3.35;0.40;;;15.20;63.00;;;;;;4135405;28;20022;-87
2022/09/01 01:01:59;;;;;;;1.38;0.60;;;15.20;63.10;;;;;;4138625;28;20030;-86
2022/09/01 01:04:01;;;;;;;0.30;0.30;;;15.20;63.20;;;;;;4117428;28;20042;-86
2022/09/01 01:06:07;;;;;;;1.40;0.30;;;15.20;63.30;;;;;;4118532;28;20215;-87
2022/09/01 01:08:10;;;;;;;1.05;0.57;;;15.20;63.50;;;;;;4123657;28;20026;-91
2022/09/01 01:10:14;;;;;;;1.05;0.50;;;15.20;63.30;;;;;;4123758;28;20065;-86
2022/09/01 01:12:17;;;;;;;1.25;0.40;;;15.20;63.30;;;;;;4117384;28;20046;-87
2022/09/01 01:14:18;;;;;;;3.50;0.37;;;15.20;63.40;;;;;;4118873;28;20058;-87
2022/09/01 01:16:21;;;;;;;1.20;0.40;;;15.20;63.30;;;;;;4122536;28;20037;-87
2022/09/01 01:18:21;;;;;;;1.40;0.47;;;15.10;63.00;;;;;;4121117;28;20022;-89
2022/09/01 01:23:23;;;;;;;0.67;0.33;;;15.20;63.30;;;;;;4119588;28;20034;-87
2022/09/01 01:25:24;;;;;;;0.93;0.30;;;15.20;63.20;;;;;;4119483;28;20289;-87
2022/09/01 01:27:30;;;;;;;1.38;0.43;;;15.20;63.20;;;;;;4118947;28;20018;-86
2022/09/01 01:29:35;;;;;;;1.30;0.30;;;15.20;63.20;;;;;;4130548;28;20085;-87
2022/09/01 01:31:36;;;;;;;0.90;0.43;;;15.20;63.20;;;;;;4114314;28;20030;-87
2022/09/01 01:33:43;;;;;;;2.25;0.40;;;15.20;63.20;;;;;;4122442;28;20596;-89
2022/09/01 01:35:44;;;;;;;0.52;0.20;;;15.20;63.20;;;;;;4118842;28;20026;-90
2022/09/01 01:37:47;;;;;;;0.60;0.40;;;15.10;63.20;;;;;;4117795;28;20152;-88
2022/09/01 01:39:48;;;;;;;;;;;15.10;63.10;;;;;;4117408;28;20041;-89
2022/09/01 01:41:50;;;;;;;0.90;0.40;;;15.20;64.00;;;;;;4123733;28;19985;-89
2022/09/01 01:43:51;;;;;;;0.68;0.40;;;15.10;63.00;;;;;;4117379;28;20061;-89
2022/09/01 01:45:54;;;;;;;0.43;0.35;;;15.10;63.20;;;;;;4105050;28;20034;-87
2022/09/01 01:47:55;;;;;;;2.25;0.40;;;15.10;63.40;;;;;;4115320;28;20038;-87
2022/09/01 01:49:56;;;;;;;1.88;0.38;;;15.10;63.40;;;;;;4116979;28;20033;-87
2022/09/01 01:51:57;;;;;;;1.05;0.30;;;15.10;63.40;;;;;;4117685;28;20067;-87
2022/09/01 01:54:04;;;;;;;1.13;0.60;;;15.10;63.40;;;;;;4118362;28;20225;-87
2022/09/01 01:56:05;;;;;;;0.63;0.38;;;15.10;63.70;;;;;;4114257;28;20072;-87
2022/09/01 01:58:10;;;;;;;0.65;0.30;;;15.10;63.70;;;;;;4118480;28;20066;-86
2022/09/01 02:00:14;;;;;;;0.50;0.30;;;15.10;63.70;;;;;;4119037;28;20041;-88
2022/09/01 02:02:14;;;;;;;1.00;0.30;;;15.10;63.50;;;;;;4118667;28;20034;-87
2022/09/01 02:04:17;;;;;;;1.35;0.43;;;15.10;63.50;;;;;;4119952;28;20343;-87
2022/09/01 02:06:23;;;;;;;1.20;0.30;;;15.10;63.30;;;;;;4119624;28;20031;-87
2022/09/01 02:08:24;;;;;;;1.75;0.65;;;15.10;63.50;;;;;;4122339;28;20030;-88
2022/09/01 02:10:29;;;;;;;1.65;0.40;;;15.10;63.40;;;;;;4119727;28;20050;-88
2022/09/01 02:12:31;;;;;;;1.05;0.32;;;15.10;63.50;;;;;;4126106;28;20055;-87
2022/09/01 02:14:32;;;;;;;1.13;0.35;;;15.00;63.50;;;;;;4136293;28;20433;-88
2022/09/01 02:16:34;;;;;;;0.52;0.28;;;15.00;63.50;;;;;;4124408;28;20110;-87
2022/09/01 02:18:37;;;;;;;1.02;0.38;;;15.00;63.50;;;;;;4126881;28;20023;-88
2022/09/01 02:20:39;;;;;;;0.70;0.38;;;15.00;63.50;;;;;;4121781;28;20026;-88
2022/09/01 02:22:42;;;;;;;1.35;0.35;;;15.00;63.30;;;;;;4123958;28;20034;-87
2022/09/01 02:24:47;;;;;;;0.73;0.30;;;15.00;63.20;;;;;;4122169;28;20035;-88
2022/09/01 02:26:49;;;;;;;1.23;0.40;;;15.00;64.00;;;;;;4109518;28;20175;-89
2022/09/01 02:28:50;;;;;;;0.50;0.50;;;15.10;63.40;;;;;;4123554;28;20022;-89
2022/09/01 02:30:53;;;;;;;1.95;0.70;;;15.00;63.40;;;;;;4121921;28;20120;-89
2022/09/01 02:32:54;;;;;;;0.60;0.40;;;15.00;63.30;;;;;;4123113;28;20407;-87
2022/09/01 02:34:55;;;;;;;1.20;0.38;;;15.00;63.20;;;;;;4118684;28;20022;-87
2022/09/01 02:36:57;;;;;;;0.28;0.20;;;15.10;63.30;;;;;;4115859;28;20399;-87
2022/09/01 02:38:57;;;;;;;0.50;0.40;;;15.00;63.20;;;;;;4119493;28;20463;-87
2022/09/01 02:41:00;;;;;;;0.75;0.32;;;15.10;63.20;;;;;;4121072;28;20112;-87
2022/09/01 02:43:01;;;;;;;3.72;0.43;;;15.10;63.20;;;;;;4121207;28;20421;-87
2022/09/01 02:45:03;;;;;;;0.80;0.38;;;15.00;63.20;;;;;;4119133;28;20078;-87
2022/09/01 02:47:08;;;;;;;1.02;0.40;;;15.00;63.20;;;;;;4118190;28;20085;-86
2022/09/01 02:49:14;;;;;;;1.17;0.50;;;15.00;63.20;;;;;;4122749;28;20054;-87
2022/09/01 02:51:17;;;;;;;1.05;0.40;;;15.00;63.20;;;;;;4142486;28;20057;-87
2022/09/01 02:53:18;;;;;;;0.73;0.40;;;14.90;63.20;;;;;;4142991;28;20040;-87
2022/09/01 02:55:21;;;;;;;0.93;0.30;;;14.90;63.20;;;;;;4124555;28;20739;-87
2022/09/01 02:57:23;;;;;;;0.70;0.43;;;14.90;63.30;;;;;;4127683;28;20080;-88
2022/09/01 02:59:27;;;;;;;0.57;0.32;;;14.90;63.30;;;;;;4120390;28;20496;-88
2022/09/01 03:01:30;;;;;;;1.25;0.55;;;14.90;63.40;;;;;;4115360;28;20511;-88
2022/09/01 03:03:34;;;;;;;0.63;0.30;;;14.80;63.50;;;;;;4106454;28;20038;-88
2022/09/01 03:05:37;;;;;;;3.22;0.40;;;14.80;63.70;;;;;;4119506;28;20035;-88
2022/09/01 03:07:40;;;;;;;;;;;14.80;63.90;;;;;;4126433;28;20026;-89
2022/09/01 03:09:41;;;;;;;1.23;0.30;;;14.80;64.50;;;;;;4122931;28;19913;-88
2022/09/01 03:11:45;;;;;;;0.90;0.43;;;14.80;63.70;;;;;;4118774;28;20062;-89
2022/09/01 03:13:46;;;;;;;1.35;0.38;;;14.70;64.00;;;;;;4119946;28;20038;-88
2022/09/01 03:15:47;;;;;;;1.23;0.35;;;14.70;64.30;;;;;;4121117;28;20034;-87
2022/09/01 03:17:48;;;;;;;1.65;0.50;;;14.70;64.60;;;;;;4118594;28;20035;-87
2022/09/01 03:19:50;;;;;;;1.23;0.50;;;14.70;64.80;;;;;;4119125;28;20077;-88
2022/09/01 03:21:51;;;;;;;1.07;0.57;;;14.70;65.10;;;;;;4123138;28;20038;-89
2022/09/01 03:23:52;;;;;;;2.05;0.50;;;14.60;65.20;;;;;;4121320;28;20026;-88
2022/09/01 03:25:53;;;;;;;0.60;0.40;;;14.70;65.50;;;;;;4122366;28;20585;-88
2022/09/01 03:27:58;;;;;;;0.82;0.40;;;14.60;65.60;;;;;;4133731;28;20456;-89
2022/09/01 03:29:58;;;;;;;0.40;0.28;;;14.60;65.80;;;;;;4133875;28;20593;-88
2022/09/01 03:31:59;;;;;;;2.47;0.32;;;14.60;65.90;;;;;;4119857;28;20046;-88
2022/09/01 03:34:02;;;;;;;0.95;0.60;;;14.60;66.00;;;;;;4119477;28;20101;-89
2022/09/01 03:36:04;;;;;;;0.40;0.40;;;14.60;66.10;;;;;;4117772;28;20577;-89
2022/09/01 03:38:04;;;;;;;0.98;0.60;;;14.60;66.10;;;;;;4120359;28;20662;-88
2022/09/01 03:40:07;;;;;;;2.47;0.47;;;14.50;66.30;;;;;;4119101;28;20035;-88
2022/09/01 03:42:11;;;;;;;0.25;0.22;;;14.50;66.40;;;;;;4116566;28;20395;-88
2022/09/01 03:44:15;;;;;;;2.58;0.50;;;14.50;66.50;;;;;;4121270;28;20541;-88
2022/09/01 03:46:20;;;;;;;0.52;0.47;;;14.50;66.60;;;;;;4119383;28;20061;-88
2022/09/01 03:48:25;;;;;;;1.42;0.75;;;14.50;66.60;;;;;;4120955;28;20069;-89
2022/09/01 03:50:26;;;;;;;1.45;0.50;;;14.50;66.40;;;;;;4119034;28;20054;-88
2022/09/01 03:52:28;;;;;;;1.10;0.57;;;14.50;66.20;;;;;;4135876;28;20375;-87
2022/09/01 03:54:31;;;;;;;2.70;0.40;;;14.50;66.20;;;;;;4118252;28;20109;-87
2022/09/01 03:56:32;;;;;;;3.00;0.50;;;14.40;66.00;;;;;;4114797;28;20065;-88
2022/09/01 03:58:34;;;;;;;0.80;0.40;;;14.40;66.20;;;;;;4119712;28;20027;-86
2022/09/01 04:00:43;;;;;;;3.10;0.50;;;14.40;66.40;;;;;;4115599;28;20042;-86
2022/09/01 04:02:54;;;;;;;0.57;0.40;;;14.40;66.70;;;;;;4141387;28;20054;-92
2022/09/01 04:05:03;;;;;;;0.60;0.50;;;14.40;66.70;;;;;;4351062;23;20092;-85
2022/09/01 04:07:04;;;;;;;2.13;0.60;;;14.30;66.70;;;;;;4156302;28;20023;-85
2022/09/01 04:09:05;;;;;;;3.85;0.30;;;14.30;66.40;;;;;;4129661;28;20059;-86
2022/09/01 04:11:22;;;;;;;2.50;0.70;;;14.30;66.80;;;;;;4134036;28;20037;-87
2022/09/01 04:13:46;;;;;;;1.88;0.55;;;14.30;67.10;;;;;;4141134;28;20033;-85
2022/09/01 04:18:03;;;;;;;0.77;0.50;;;14.30;66.90;;;;;;4139678;28;20534;-86
2022/09/01 04:18:56;;;;;;;1.55;0.57;;;14.20;66.80;;;;;;4134859;28;20674;-85
2022/09/01 04:21:18;;;;;;;1.00;0.47;;;14.20;66.70;;;;;;4134130;28;20053;-86
2022/09/01 04:23:39;;;;;;;0.90;0.50;;;14.20;67.40;;;;;;4134265;28;20463;-85
2022/09/01 04:26:09;;;;;;;1.52;0.60;;;14.20;66.70;;;;;;4134017;28;20034;-86
2022/09/01 04:28:34;;;;;;;4.70;0.45;;;14.10;66.60;;;;;;4133760;28;20033;-85
2022/09/01 04:30:57;;;;;;;0.75;0.52;;;14.10;66.60;;;;;;4135097;28;20030;-85
2022/09/01 04:33:18;;;;;;;0.60;0.40;;;14.10;66.60;;;;;;4132817;28;20034;-85
2022/09/01 04:35:39;;;;;;;2.40;0.60;;;14.10;66.60;;;;;;4131901;28;20041;-87
2022/09/01 04:38:00;;;;;;;0.88;0.50;;;14.00;66.60;;;;;;4136364;28;20030;-87
2022/09/01 04:40:22;;;;;;;2.30;0.68;;;14.00;66.60;;;;;;4136037;28;20065;-86
2022/09/01 04:42:43;;;;;;;1.13;0.50;;;14.00;66.80;;;;;;4128973;28;20541;-93
2022/09/01 04:45:09;;;;;;;1.67;0.50;;;14.00;67.20;;;;;;4132211;28;20037;-86
2022/09/01 04:47:30;;;;;;;3.22;0.55;;;14.00;67.20;;;;;;4127367;28;20035;-86
2022/09/01 04:49:59;;;;;;;2.33;0.57;;;14.00;67.20;;;;;;4133658;28;20123;-86
2022/09/01 04:52:19;;;;;;;3.05;0.50;;;13.90;67.10;;;;;;4130830;28;20041;-86
2022/09/01 04:54:40;;;;;;;5.35;0.75;;;13.90;66.80;;;;;;4140921;28;20036;-86
2022/09/01 04:57:01;;;;;;;1.88;0.60;;;13.90;66.80;;;;;;4133118;28;20028;-86
2022/09/01 04:59:23;;;;;;;1.65;0.70;;;13.90;66.90;;;;;;4135457;28;20042;-86
2022/09/01 05:01:45;;;;;;;1.10;0.63;;;13.90;67.10;;;;;;4132238;28;20575;-86
2022/09/01 05:04:05;;;;;;;5.05;0.85;;;13.80;67.20;;;;;;4139460;28;20033;-85
2022/09/01 05:06:28;;;;;;;1.00;0.57;;;13.80;67.50;;;;;;4139757;28;20034;-85
2022/09/01 05:08:50;;;;;;;6.03;0.70;;;13.80;67.90;;;;;;4139921;28;20068;-86
2022/09/01 05:11:15;;;;;;;2.63;0.70;;;13.80;68.10;;;;;;4138295;28;20038;-85
2022/09/01 05:13:17;;;;;;;1.83;0.43;;;13.80;68.30;;;;;;4141118;28;20049;-85
2022/09/01 05:15:19;;;;;;;1.40;0.60;;;13.90;68.60;;;;;;4126948;28;20037;-85
2022/09/01 05:17:20;;;;;;;0.95;0.50;;;13.90;68.90;;;;;;4137408;28;20556;-86
2022/09/01 05:19:27;;;;;;;3.40;0.60;;;13.90;69.10;;;;;;4133422;28;20100;-86
2022/09/01 05:21:28;;;;;;;0.88;0.40;;;13.90;69.50;;;;;;4138440;28;20128;-85
2022/09/01 05:23:30;;;;;;;2.17;0.60;;;14.00;69.90;;;;;;4142611;28;20045;-86
2022/09/01 05:25:40;;;;;;;1.88;0.85;;;14.00;70.40;;;;;;4141753;28;20037;-85
2022/09/01 05:27:50;;;;;;;0.77;0.52;;;14.00;71.40;;;;;;4135081;28;20085;-86
2022/09/01 05:29:52;;;;;;;1.42;0.40;;;14.10;71.00;;;;;;4155495;28;20021;-86
2022/09/01 05:31:54;;;;;;;0.80;0.60;;;14.10;71.20;;;;;;4140025;28;20038;-86
2022/09/01 05:33:56;;;;;;;1.17;0.63;;;14.20;71.50;;;;;;4139057;28;20061;-86
2022/09/01 05:36:00;;;;;;;1.08;0.40;;;14.30;72.00;;;;;;4141212;28;20108;-86
2022/09/01 05:38:02;;;;;;;0.63;0.57;;;14.40;72.20;;;;;;4132798;28;20030;-86
2022/09/01 05:40:14;;;;;;;0.45;0.38;;;14.40;72.30;;;;;;4133092;28;20026;-86
2022/09/01 05:42:16;;;;;;;1.33;0.50;;;14.50;72.50;;;;;;4133010;28;20065;-86
2022/09/01 05:44:17;;;;;;;0.70;0.50;;;14.50;72.60;;;;;;4139706;28;20034;-87
2022/09/01 05:46:20;;;;;;;4.00;0.73;;;14.60;72.90;;;;;;4138434;28;20109;-86
2022/09/01 05:48:22;;;;;;;1.38;0.55;;;14.70;72.80;;;;;;4135146;28;20060;-86
2022/09/01 05:50:23;;;;;;;2.55;0.70;;;14.80;72.70;;;;;;4139080;28;20325;-85
2022/09/01 05:52:25;;;;;;;0.70;0.50;;;14.80;72.30;;;;;;4139834;28;20045;-86
2022/09/01 05:54:26;;;;;;;2.00;0.50;;;14.90;72.40;;;;;;4134361;28;20073;-86
2022/09/01 05:56:30;;;;;;;1.13;0.50;;;14.90;72.50;;;;;;4131260;28;20117;-86
2022/09/01 05:58:30;;;;;;;;;;;15.00;73.10;;;;;;4137030;28;20503;-86
2022/09/01 06:00:33;;;;;;;2.97;0.70;;;15.10;72.80;;;;;;4137307;28;19905;-87
2022/09/01 06:02:34;;;;;;;0.85;0.40;;;15.20;71.90;;;;;;4142595;28;20467;-86
2022/09/01 06:04:56;;;;;;;0.70;0.50;;;15.30;72.50;;;;;;4133550;28;20038;-86
2022/09/01 06:07:17;;;;;;;1.70;0.50;;;15.30;72.30;;;;;;4136858;28;20034;-85
2022/09/01 06:09:39;;;;;;;1.55;0.60;;;15.40;71.30;;;;;;4136571;28;20126;-86
2022/09/01 06:12:01;;;;;;;3.42;0.80;;;15.50;70.90;;;;;;4138392;28;20026;-86
2022/09/01 06:14:22;;;;;;;0.80;0.50;;;15.50;70.60;;;;;;4140175;28;20033;-86
2022/09/01 06:16:46;;;;;;;1.33;0.60;;;15.60;70.10;;;;;;4142336;28;20173;-86
2022/09/01 06:19:07;;;;;;;1.48;0.47;;;15.70;69.90;;;;;;4145120;28;20037;-84
2022/09/01 06:21:27;;;;;;;0.85;0.50;;;15.80;69.40;;;;;;4141015;28;20466;-86
2022/09/01 06:23:35;;;;;;;2.33;0.50;;;15.90;69.00;;;;;;4127178;28;20039;-86
2022/09/01 06:25:36;;;;;;;4.03;0.40;;;15.90;68.70;;;;;;4133161;28;20027;-86
2022/09/01 06:27:40;;;;;;;1.85;0.35;;;16.00;68.40;;;;;;4139414;28;20046;-86
2022/09/01 06:29:40;;;;;;;1.08;0.60;;;16.00;68.00;;;;;;4136928;28;20021;-86
2022/09/01 06:31:42;;;;;;;1.42;0.70;;;16.10;67.80;;;;;;4138618;28;20050;-87
2022/09/01 06:33:43;;;;;;;3.47;0.70;;;16.10;67.50;;;;;;4135019;28;20035;-85
2022/09/01 06:35:46;;;;;;;0.90;0.52;;;16.20;67.20;;;;;;4132286;28;20033;-86
2022/09/01 06:37:47;;;;;;;1.02;0.45;;;16.30;67.10;;;;;;4136803;28;20033;-85
2022/09/01 06:39:48;;;;;;;0.50;0.30;;;16.30;67.10;;;;;;4137845;28;20045;-86
2022/09/01 06:41:51;;;;;;;7.90;0.52;;;16.40;67.00;;;;;;4143540;28;20026;-85
2022/09/01 06:43:52;;;;;;;1.77;0.47;;;16.40;66.60;;;;;;4137218;28;20026;-86
2022/09/01 06:45:53;;;;;;;1.05;0.50;;;16.50;66.60;;;;;;4130669;28;20038;-85
2022/09/01 06:47:54;;;;;;;1.05;0.50;;;16.50;66.10;;;;;;4141713;28;20488;-86
2022/09/01 06:49:58;;;;;;;0.55;0.50;;;16.60;65.90;;;;;;4132346;28;20456;-86
2022/09/01 06:52:01;;;;;;;3.13;0.50;;;16.60;65.40;;;;;;4130775;28;20018;-85
2022/09/01 06:54:02;;;;;;;;;;;16.70;65.40;;;;;;4140158;28;20034;-86
2022/09/01 06:56:03;;;;;;;2.47;0.57;;;16.70;65.00;;;;;;4142804;28;20595;-85
2022/09/01 06:58:06;;;;;;;2.25;0.45;;;16.80;64.90;;;;;;4140509;28;20049;-86
2022/09/01 07:00:14;;;;;;;0.50;0.30;;;16.80;64.30;;;;;;4138543;28;20033;-86
2022/09/01 07:02:15;;;;;;;1.13;0.40;;;16.80;63.80;;;;;;4141885;28;20108;-85
2022/09/01 07:04:20;;;;;;;0.70;0.45;;;16.90;63.90;;;;;;4139425;28;20402;-84
2022/09/01 07:06:28;;;;;;;3.17;0.30;;;16.90;64.20;;;;;;4139270;28;20187;-88
2022/09/01 07:08:30;;;;;;;2.85;0.55;;;17.00;63.50;;;;;;4141445;28;20033;-85
2022/09/01 07:10:31;;;;;;;2.22;0.60;;;17.00;63.40;;;;;;4138616;28;20118;-84
2022/09/01 07:12:31;;;;;;;0.45;0.25;;;17.10;63.40;;;;;;4137021;28;20266;-84
2022/09/01 07:14:32;;;;;;;1.35;0.60;;;17.20;63.50;;;;;;4140147;28;20045;-85
2022/09/01 07:16:39;;;;;;;1.42;0.55;;;17.20;63.00;;;;;;4138777;28;20037;-85
2022/09/01 07:18:39;;;;;;;2.10;0.63;;;17.20;62.60;;;;;;4134953;28;20030;-84
2022/09/01 07:20:40;;;;;;;6.05;0.65;;;17.30;62.70;;;;;;4143361;28;20413;-84
2022/09/01 07:22:41;;;;;;;2.97;0.52;;;17.30;62.30;;;;;;4136952;28;20041;-85
2022/09/01 07:24:42;;;;;;;1.25;0.50;;;17.40;62.40;;;;;;4138814;28;20405;-84
2022/09/01 07:26:43;;;;;;;1.60;0.43;;;17.50;62.40;;;;;;4142753;28;20530;-85
2022/09/01 07:28:45;;;;;;;0.75;0.40;;;17.50;62.00;;;;;;4143175;28;20375;-84
2022/09/01 07:30:49;;;;;;;1.90;0.50;;;17.60;61.80;;;;;;4144336;28;20496;-85
2022/09/01 07:32:51;;;;;;;3.70;0.52;;;17.70;61.70;;;;;;4141862;28;20107;-84
2022/09/01 07:34:53;;;;;;;0.50;0.35;;;17.70;61.00;;;;;;4137119;28;20073;-85
2022/09/01 07:36:55;;;;;;;1.23;0.70;;;17.80;59.40;;;;;;4138833;28;20030;-84
2022/09/01 07:38:56;;;;;;;0.45;0.32;;;17.80;58.30;;;;;;4134791;28;20022;-85
2022/09/01 07:40:58;;;;;;;0.35;0.32;;;17.90;57.90;;;;;;4139032;28;20378;-84
2022/09/01 07:42:59;;;;;;;4.82;0.40;;;17.90;57.30;;;;;;4135681;28;20057;-84
2022/09/01 07:45:07;;;;;;;0.77;0.40;;;17.90;56.40;;;;;;4133666;28;20089;-85
2022/09/01 07:47:08;;;;;;;0.50;0.45;;;18.00;56.90;;;;;;4140059;28;20022;-84
2022/09/01 07:49:10;;;;;;;1.65;0.40;;;18.00;56.20;;;;;;4144393;28;20022;-85
2022/09/01 07:51:12;;;;;;;1.25;0.40;;;18.10;56.10;;;;;;4138487;28;20189;-86
2022/09/01 07:53:26;;;;;;;2.28;0.68;;;18.00;54.60;;;;;;4140120;28;20040;-85
2022/09/01 07:55:27;;;;;;;0.60;0.30;;;18.00;54.40;;;;;;4140863;28;20026;-85
2022/09/01 07:57:28;;;;;;;1.38;0.50;;;18.00;54.10;;;;;;4147445;28;20021;-84
2022/09/01 07:59:30;;;;;;;0.75;0.40;;;18.10;54.70;;;;;;4146744;28;20053;-85
2022/09/01 08:01:30;;;;;;;2.80;0.40;;;18.20;55.10;;;;;;4139269;28;20049;-85
2022/09/01 08:03:31;;;;;;;1.45;0.40;;;18.20;54.60;;;;;;4142232;28;20509;-84
2022/09/01 08:05:32;;;;;;;0.45;0.30;;;18.20;54.60;;;;;;4143124;28;20046;-84
2022/09/01 08:07:33;;;;;;;2.10;0.32;;;18.30;54.10;;;;;;4134753;28;20027;-85
2022/09/01 08:09:36;;;;;;;0.80;0.40;;;18.30;52.60;;;;;;4142573;28;20041;-86
2022/09/01 08:11:37;;;;;;;;;;;18.30;52.50;;;;;;4138643;28;20061;-86
2022/09/01 08:13:38;;;;;;;0.88;0.28;;;18.30;52.90;;;;;;4137859;28;19913;-87
2022/09/01 08:15:39;;;;;;;1.20;0.32;;;18.40;53.00;;;;;;4135789;28;20035;-87
2022/09/01 08:17:40;;;;;;;0.52;0.20;;;18.40;52.90;;;;;;4139268;28;20022;-86
2022/09/01 08:19:42;;;;;;;3.30;0.47;;;18.50;51.30;;;;;;4134650;28;20037;-87
2022/09/01 08:21:43;;;;;;;1.17;0.52;;;18.50;51.00;;;;;;4131256;28;20033;-87
2022/09/01 08:23:44;;;;;;;0.88;0.40;;;18.50;51.40;;;;;;4137890;28;20230;-88
2022/09/01 08:25:46;;;;;;;2.40;0.32;;;18.60;52.10;;;;;;4145129;28;20088;-88
2022/09/01 08:27:47;;;;;;;0.82;0.25;;;18.70;51.90;;;;;;4138112;28;20029;-86
2022/09/01 08:29:48;;;;;;;1.25;0.50;;;18.70;50.90;;;;;;4130802;28;20519;-87
2022/09/01 08:31:48;;;;;;;0.57;0.40;;;18.80;50.40;;;;;;4140925;28;20817;-87
2022/09/01 08:33:50;;;;;;;1.25;0.40;;;18.80;51.00;;;;;;4131383;28;20116;-87
2022/09/01 08:35:50;;;;;;;0.60;0.30;;;18.90;51.20;;;;;;4135168;28;20034;-87
2022/09/01 08:37:51;;;;;;;2.35;0.40;;;18.90;51.00;;;;;;4136961;28;20750;-86
2022/09/01 08:39:52;;;;;;;0.63;0.40;;;18.90;51.20;;;;;;4132331;28;20487;-87
2022/09/01 08:42:20;;;;;;;0.30;0.28;;;19.00;50.30;;;;;;4137270;28;20080;-88
2022/09/01 08:44:36;;;;;;;1.77;0.50;;;19.00;49.10;;;;;;4135438;28;20153;-86
2022/09/01 08:46:40;;;;;;;0.65;0.40;;;19.10;49.60;;;;;;4134637;28;20117;-87
2022/09/01 08:48:47;;;;;;;0.40;0.32;;;19.10;49.90;;;;;;4140315;28;20018;-86
2022/09/01 08:50:56;;;;;;;1.80;0.52;;;19.10;49.40;;;;;;4135449;28;20030;-87
2022/09/01 08:53:27;;;;;;;0.35;0.22;;;19.10;48.50;;;;;;4137142;28;20129;-87
2022/09/01 08:55:37;;;;;;;0.35;0.20;;;19.20;48.00;;;;;;4135574;28;20044;-86
2022/09/01 08:57:41;;;;;;;2.67;0.30;;;19.20;48.50;;;;;;4135380;28;20032;-86
2022/09/01 08:59:42;;;;;;;0.30;0.20;;;19.20;48.80;;;;;;4136128;28;20049;-87
2022/09/01 09:01:59;;;;;;;0.90;0.47;;;19.30;48.40;;;;;;4137844;28;20037;-87
2022/09/01 09:04:13;;;;;;;1.08;0.30;;;19.30;47.60;;;;;;4137625;28;20053;-87
2022/09/01 09:06:27;;;;;;;0.80;0.30;;;19.30;49.10;;;;;;4132860;28;20027;-86
2022/09/01 09:09:03;;;;;;;0.40;0.30;;;19.40;49.40;;;;;;4140278;28;20104;-86
2022/09/01 09:11:25;;;;;;;2.20;0.52;;;19.40;49.70;;;;;;4135422;28;20033;-88
2022/09/01 09:13:47;;;;;;;1.55;0.40;;;19.50;48.80;;;;;;4134085;28;20034;-87
2022/09/01 09:15:57;;;;;;;0.93;0.40;;;19.50;49.30;;;;;;4144816;28;20074;-87
2022/09/01 09:18:08;;;;;;;0.65;0.50;;;19.60;49.20;;;;;;4133589;28;20034;-87
2022/09/01 09:20:09;;;;;;;3.35;0.30;;;19.70;49.60;;;;;;4134005;28;20045;-87
2022/09/01 09:22:14;;;;;;;1.02;0.20;;;19.70;49.30;;;;;;4137969;28;20115;-87
2022/09/01 09:24:48;;;;;;;2.00;0.50;;;19.70;49.10;;;;;;4136384;28;20049;-86
2022/09/01 09:26:50;;;;;;;;;;;19.70;48.50;;;;;;4136390;28;20070;-86
2022/09/01 09:28:53;;;;;;;0.35;0.30;;;19.80;47.60;;;;;;4136406;28;19979;-87
2022/09/01 09:31:13;;;;;;;;;;;19.80;47.90;;;;;;4134689;28;20029;-88
2022/09/01 09:33:36;;;;;;;1.50;0.43;;;19.80;48.10;;;;;;4134866;28;20223;-88
2022/09/01 09:35:41;;;;;;;;;;;19.80;47.80;;;;;;4140069;28;20029;-87
2022/09/01 09:37:41;;;;;;;0.77;0.38;;;19.90;47.60;;;;;;4135686;28;19915;-88
2022/09/01 09:39:42;;;;;;;0.90;0.40;;;20.00;49.10;;;;;;4137305;28;20030;-88
2022/09/01 09:42:08;;;;;;;1.50;0.40;;;20.00;48.00;;;;;;4140241;28;20056;-88
2022/09/01 09:44:28;;;;;;;4.85;0.52;;;20.00;47.70;;;;;;4140153;28;20042;-88
2022/09/01 09:46:36;;;;;;;0.50;0.25;;;20.10;47.20;;;;;;4134453;28;20038;-86
2022/09/01 09:48:37;;;;;;;0.50;0.30;;;20.10;47.60;;;;;;4134566;28;20076;-87
2022/09/01 09:50:39;;;;;;;2.85;0.43;;;20.10;47.80;;;;;;4137602;28;20458;-87
2022/09/01 09:52:40;;;;;;;0.65;0.20;;;20.10;47.60;;;;;;4132816;28;20030;-87
2022/09/01 09:55:02;;;;;;;2.03;0.40;;;20.20;47.20;;;;;;4138776;28;20024;-88
2022/09/01 09:57:12;;;;;;;0.17;0.17;;;20.20;45.70;;;;;;4137878;28;20026;-87
2022/09/01 09:59:27;;;;;;;0.95;0.40;;;20.20;45.90;;;;;;4135629;28;20184;-88
2022/09/01 10:01:29;;;;;;;1.77;0.38;;;20.20;45.10;;;;;;4138448;28;20026;-87
2022/09/01 10:03:45;;;;;;;1.42;0.30;;;20.20;45.80;;;;;;4134151;28;20034;-86
2022/09/01 10:05:50;;;;;;;0.85;0.47;;;20.20;46.10;;;;;;4140492;28;20398;-88
2022/09/01 10:07:52;;;;;;;2.58;0.60;;;20.30;46.30;;;;;;4140743;28;20045;-87
2022/09/01 10:09:56;;;;;;;0.90;0.57;;;20.30;46.80;;;;;;4137130;28;20038;-87
2022/09/01 10:11:58;;;;;;;6.70;0.55;;;20.30;46.90;;;;;;4133959;28;20022;-87
2022/09/01 10:13:58;;;;;;;1.40;0.30;;;20.30;45.70;;;;;;4138377;28;20394;-87
2022/09/01 10:16:02;;;;;;;0.68;0.40;;;20.30;45.50;;;;;;4141699;28;20219;-88
2022/09/01 10:18:14;;;;;;;0.75;0.30;;;20.30;46.00;;;;;;4132714;28;20502;-89
2022/09/01 10:20:22;;;;;;;8.10;0.40;;;20.40;45.40;;;;;;4150482;28;20041;-87
2022/09/01 10:22:24;;;;;;;2.30;0.57;;;20.40;45.50;;;;;;4151274;28;20423;-88
2022/09/01 10:24:34;;;;;;;1.52;0.30;;;20.40;45.50;;;;;;4156853;28;20097;-87
2022/09/01 10:26:38;;;;;;;1.67;0.40;;;20.40;45.60;;;;;;4135626;28;20030;-88
2022/09/01 10:29:05;;;;;;;0.50;0.30;;;20.50;45.80;;;;;;4137433;28;20033;-88
2022/09/01 10:31:07;;;;;;;0.82;0.43;;;20.50;45.50;;;;;;4134789;28;20048;-86
2022/09/01 10:33:10;;;;;;;2.35;0.43;;;20.50;45.10;;;;;;4140667;28;20026;-87
2022/09/01 10:35:24;;;;;;;0.40;0.35;;;20.50;44.50;;;;;;4142098;28;20402;-88
2022/09/01 10:37:34;;;;;;;0.25;0.20;;;20.50;44.40;;;;;;4139676;28;20030;-88
2022/09/01 10:40:13;;;;;;;0.80;0.30;;;20.50;43.80;;;;;;4137371;28;20108;-86
2022/09/01 10:42:17;;;;;;;0.68;0.30;;;20.40;43.30;;;;;;4146827;28;20125;-88
2022/09/01 10:44:22;;;;;;;0.43;0.30;;;20.40;44.30;;;;;;4142362;28;20321;-88
2022/09/01 10:46:23;;;;;;;3.63;0.47;;;20.40;43.00;;;;;;4149317;28;20022;-87
2022/09/01 10:48:30;;;;;;;6.32;0.25;;;20.30;42.40;;;;;;4142575;28;20037;-87
2022/09/01 10:50:32;;;;;;;1.08;0.32;;;20.30;42.40;;;;;;4141605;28;20394;-88
2022/09/01 10:52:41;;;;;;;1.13;0.40;;;20.30;42.60;;;;;;4127070;28;20090;-86
2022/09/01 10:54:42;;;;;;;0.40;0.15;;;20.20;42.00;;;;;;4132170;28;20087;-88
2022/09/01 10:56:49;;;;;;;1.17;0.30;;;20.30;41.40;;;;;;4153425;28;20037;-88
2022/09/01 10:59:23;;;;;;;0.30;0.20;;;20.30;41.30;;;;;;4137603;28;20409;-87
2022/09/01 11:01:42;;;;;;;0.47;0.37;;;20.30;40.00;;;;;;4130291;28;20034;-87